createdAt,value
2022-11-08T00:01:39.019Z,98404.78
2022-11-08T00:04:30.025Z,98397.13
2022-11-08T00:07:38.786Z,98393.06
2022-11-08T00:10:43.930Z,98394.00
2022-11-08T00:13:50.410Z,98394.97
2022-11-08T00:16:38.068Z,98386.34
2022-11-08T00:19:25.654Z,98391.19
2022-11-08T00:22:15.084Z,98392.28
2022-11-08T00:25:03.028Z,98387.13
2022-11-08T00:27:50.341Z,98392.78
2022-11-08T00:30:39.349Z,98398.19
2022-11-08T00:33:27.090Z,98392.31
2022-11-08T00:36:14.943Z,98400.34
2022-11-08T00:39:02.824Z,98392.00
2022-11-08T00:41:50.415Z,98394.88
2022-11-08T00:44:38.315Z,98393.31
2022-11-08T00:47:27.637Z,98390.22
2022-11-08T00:50:15.340Z,98398.25
2022-11-08T00:53:02.844Z,98404.63
2022-11-08T00:55:50.844Z,98403.16
2022-11-08T00:58:39.540Z,98393.94
2022-11-08T01:01:27.681Z,98395.03
2022-11-08T01:04:20.433Z,98390.97
2022-11-08T01:07:08.363Z,98393.00
2022-11-08T01:09:56.212Z,98391.47
2022-11-08T01:12:44.143Z,98389.88
2022-11-08T01:15:37.277Z,98390.13
2022-11-08T01:18:25.154Z,98392.31
2022-11-08T01:21:15.184Z,98385.38
2022-11-08T01:24:03.198Z,98381.03
2022-11-08T01:26:52.461Z,98379.75
2022-11-08T01:29:40.400Z,98388.72
2022-11-08T01:32:28.142Z,98388.97
2022-11-08T01:35:18.898Z,98386.59
2022-11-08T01:38:09.496Z,98395.69
2022-11-08T01:40:57.186Z,98383.69
2022-11-08T01:43:46.724Z,98380.38
2022-11-08T01:46:45.433Z,98387.66
2022-11-08T01:49:44.495Z,98380.84
2022-11-08T01:52:39.622Z,98372.22
2022-11-08T01:55:36.357Z,98374.16
2022-11-08T01:58:31.877Z,98361.47
2022-11-08T02:01:19.672Z,98363.34
2022-11-08T02:04:10.922Z,98360.72
2022-11-08T02:06:59.188Z,98358.56
2022-11-08T02:09:49.122Z,98354.28
2022-11-08T02:12:38.124Z,98349.25
2022-11-08T02:15:28.609Z,98344.22
2022-11-08T02:18:18.718Z,98339.06
2022-11-08T02:21:15.178Z,98345.31
2022-11-08T02:24:09.941Z,98332.50
2022-11-08T02:26:59.077Z,98334.28
2022-11-08T02:29:47.230Z,98322.19
2022-11-08T02:32:39.788Z,98323.00
2022-11-08T02:35:28.970Z,98320.50
2022-11-08T02:38:17.684Z,98316.19
2022-11-08T02:41:07.586Z,98320.03
2022-11-08T02:43:55.458Z,98319.19
2022-11-08T02:46:43.603Z,98321.13
2022-11-08T02:49:31.328Z,98314.28
2022-11-08T02:52:18.774Z,98317.03
2022-11-08T02:55:07.590Z,98311.19
2022-11-08T02:57:57.827Z,98309.72
2022-11-08T03:00:45.889Z,98312.63
2022-11-08T03:03:33.453Z,98319.78
2022-11-08T03:06:21.290Z,98318.25
2022-11-08T03:09:09.057Z,98317.38
2022-11-08T03:11:56.856Z,98314.16
2022-11-08T03:14:45.688Z,98313.56
2022-11-08T03:17:35.839Z,98312.81
2022-11-08T03:20:29.609Z,98312.25
2022-11-08T03:23:20.743Z,98309.72
2022-11-08T03:26:08.746Z,98315.22
2022-11-08T03:28:57.078Z,98317.97
2022-11-08T03:31:46.009Z,98314.63
2022-11-08T03:34:34.878Z,98307.06
2022-11-08T03:37:23.074Z,98311.72
2022-11-08T03:40:12.951Z,98306.59
2022-11-08T03:43:00.819Z,98310.38
2022-11-08T03:45:48.710Z,98312.44
2022-11-08T03:48:37.621Z,98313.47
2022-11-08T03:51:25.369Z,98320.66
2022-11-08T03:54:13.402Z,98317.31
2022-11-08T03:57:02.675Z,98315.75
2022-11-08T03:59:50.319Z,98318.63
2022-11-08T04:02:38.101Z,98314.44
2022-11-08T04:05:27.261Z,98312.97
2022-11-08T04:08:15.107Z,98313.19
2022-11-08T04:11:23.457Z,98315.13
2022-11-08T04:14:29.156Z,98303.16
2022-11-08T04:17:17.023Z,98304.19
2022-11-08T04:20:22.799Z,98310.53
2022-11-08T04:23:13.258Z,98309.09
2022-11-08T04:26:03.820Z,98296.06
2022-11-08T04:28:51.552Z,98295.31
2022-11-08T04:31:39.452Z,98301.66
2022-11-08T04:34:27.387Z,98295.66
2022-11-08T04:37:15.683Z,98290.63
2022-11-08T04:40:05.322Z,98300.56
2022-11-08T04:42:52.952Z,98298.03
2022-11-08T04:45:41.532Z,98294.69
2022-11-08T04:48:29.347Z,98287.88
2022-11-08T04:51:20.802Z,98287.13
2022-11-08T04:54:08.375Z,98284.84
2022-11-08T04:56:57.874Z,98282.44
2022-11-08T04:59:45.410Z,98280.03
2022-11-08T05:02:32.981Z,98278.38
2022-11-08T05:05:20.854Z,98282.88
2022-11-08T05:08:08.523Z,98272.59
2022-11-08T05:11:03.065Z,98274.53
2022-11-08T05:13:53.418Z,98266.88
2022-11-08T05:16:41.378Z,98261.84
2022-11-08T05:19:46.611Z,98262.78
2022-11-08T05:22:51.830Z,98262.16
2022-11-08T05:25:43.993Z,98260.59
2022-11-08T05:28:31.586Z,98268.50
2022-11-08T05:31:20.806Z,98255.56
2022-11-08T05:34:08.623Z,98263.47
2022-11-08T05:36:56.196Z,98272.38
2022-11-08T05:39:43.924Z,98259.59
2022-11-08T05:42:31.588Z,98255.16
2022-11-08T05:45:19.246Z,98253.72
2022-11-08T05:48:08.742Z,98252.88
2022-11-08T05:50:57.260Z,98253.09
2022-11-08T05:53:47.040Z,98255.00
2022-11-08T05:56:35.008Z,98249.97
2022-11-08T05:59:23.132Z,98243.78
2022-11-08T06:02:10.752Z,98248.28
2022-11-08T06:05:02.247Z,98244.00
2022-11-08T06:07:49.998Z,98248.53
2022-11-08T06:10:37.883Z,98248.53
2022-11-08T06:13:25.581Z,98257.34
2022-11-08T06:16:16.606Z,98252.41
2022-11-08T06:19:04.738Z,98252.53
2022-11-08T06:21:53.726Z,98263.03
2022-11-08T06:24:42.482Z,98254.44
2022-11-08T06:27:30.621Z,98264.94
2022-11-08T06:30:18.703Z,98265.16
2022-11-08T06:33:06.729Z,98267.03
2022-11-08T06:35:55.392Z,98265.38
2022-11-08T06:38:44.776Z,98259.38
2022-11-08T06:41:32.995Z,98272.41
2022-11-08T06:44:21.086Z,98268.09
2022-11-08T06:47:08.879Z,98272.50
2022-11-08T06:49:56.697Z,98272.63
2022-11-08T06:52:44.536Z,98272.72
2022-11-08T06:55:36.128Z,98262.22
2022-11-08T06:58:24.892Z,98258.69
2022-11-08T07:01:13.805Z,98251.72
2022-11-08T07:04:01.300Z,98255.09
2022-11-08T07:06:48.972Z,98264.63
2022-11-08T07:09:36.728Z,98268.72
2022-11-08T07:12:25.799Z,98265.97
2022-11-08T07:15:13.595Z,98270.19
2022-11-08T07:18:03.211Z,98265.66
2022-11-08T07:20:50.845Z,98276.69
2022-11-08T07:23:38.456Z,98270.25
2022-11-08T07:26:26.014Z,98268.16
2022-11-08T07:29:16.106Z,98261.28
2022-11-08T07:32:04.124Z,98260.97
2022-11-08T07:34:51.614Z,98267.53
2022-11-08T07:37:38.964Z,98274.63
2022-11-08T07:40:26.905Z,98285.84
2022-11-08T07:43:14.505Z,98283.72
2022-11-08T07:46:03.935Z,98288.09
2022-11-08T07:48:51.700Z,98280.03
2022-11-08T07:51:39.285Z,98278.84
2022-11-08T07:54:26.866Z,98282.47
2022-11-08T07:57:14.425Z,98279.91
2022-11-08T08:00:07.245Z,98276.25
2022-11-08T08:03:00.493Z,98279.56
2022-11-08T08:05:58.177Z,98276.41
2022-11-08T08:08:48.047Z,98274.56
2022-11-08T08:11:35.600Z,98274.09
2022-11-08T08:14:23.559Z,98278.38
2022-11-08T08:17:11.627Z,98271.19
2022-11-08T08:20:00.608Z,98271.66
2022-11-08T08:22:50.439Z,98273.19
2022-11-08T08:25:37.972Z,98279.25
2022-11-08T08:28:25.709Z,98274.47
2022-11-08T08:31:13.574Z,98278.41
2022-11-08T08:34:01.665Z,98277.22
2022-11-08T08:36:50.637Z,98269.59
2022-11-08T08:39:38.270Z,98265.69
2022-11-08T08:42:26.577Z,98267.09
2022-11-08T08:45:15.254Z,98267.91
2022-11-08T08:48:03.492Z,98268.19
2022-11-08T08:50:50.921Z,98266.34
2022-11-08T08:53:40.187Z,98263.06
2022-11-08T08:56:27.821Z,98265.72
2022-11-08T09:02:23.251Z,98256.56
2022-11-08T09:05:12.755Z,98244.78
2022-11-08T09:08:01.038Z,98252.78
2022-11-08T09:10:55.626Z,98247.44
2022-11-08T09:13:43.423Z,98237.81
2022-11-08T09:16:31.123Z,98245.72
2022-11-08T09:19:18.613Z,98240.09
2022-11-08T09:22:06.389Z,98231.53
2022-11-08T09:24:54.394Z,98234.34
2022-11-08T09:27:43.727Z,98232.03
2022-11-08T09:30:31.546Z,98237.03
2022-11-08T09:33:19.425Z,98229.47
2022-11-08T09:36:09.845Z,98227.94
2022-11-08T09:38:57.501Z,98223.13
2022-11-08T09:42:10.396Z,98209.22
2022-11-08T09:45:22.679Z,98199.84
2022-11-08T09:48:29.680Z,98182.72
2022-11-08T09:51:22.036Z,98189.28
2022-11-08T09:54:21.273Z,98179.66
2022-11-08T09:57:21.419Z,98185.31
2022-11-08T10:00:14.710Z,98187.81
2022-11-08T10:03:03.974Z,98188.75
2022-11-08T10:06:28.085Z,98190.94
2022-11-08T10:09:38.325Z,98192.84
2022-11-08T10:12:36.951Z,98178.03
2022-11-08T10:15:39.111Z,98181.03
2022-11-08T10:19:05.994Z,98176.59
2022-11-08T10:22:00.454Z,98165.94
2022-11-08T10:24:58.398Z,98159.47
2022-11-08T10:27:46.282Z,98167.16
2022-11-08T10:30:40.645Z,98168.84
2022-11-08T10:33:33.708Z,98174.16
2022-11-08T10:36:28.580Z,98171.19
2022-11-08T10:39:24.192Z,98172.16
2022-11-08T10:42:20.897Z,98174.47
2022-11-08T10:45:11.269Z,98167.47
2022-11-08T10:48:00.850Z,98163.00
2022-11-08T10:50:54.555Z,98147.13
2022-11-08T10:53:45.642Z,98149.94
2022-11-08T10:56:54.414Z,98131.38
2022-11-08T10:59:42.873Z,98125.19
2022-11-08T11:02:36.073Z,98119.63
2022-11-08T11:05:37.491Z,98110.25
2022-11-08T11:08:29.252Z,98114.66
2022-11-08T11:11:27.220Z,98115.44
2022-11-08T11:14:22.518Z,98107.91
2022-11-08T11:17:19.059Z,98115.00
2022-11-08T11:20:19.345Z,98112.63
2022-11-08T11:23:12.944Z,98111.03
2022-11-08T11:26:00.990Z,98116.44
2022-11-08T11:29:18.952Z,98109.53
2022-11-08T11:32:24.362Z,98100.81
2022-11-08T11:35:16.720Z,98109.34
2022-11-08T11:38:19.164Z,98106.03
2022-11-08T11:41:16.645Z,98099.44
2022-11-08T11:44:19.931Z,98095.53
2022-11-08T11:47:17.028Z,98090.91
2022-11-08T11:50:23.639Z,98082.78
2022-11-08T11:53:20.201Z,98078.34
2022-11-08T11:56:49.341Z,98075.28
2022-11-08T12:00:02.648Z,98067.84
2022-11-08T12:03:31.786Z,98071.03
2022-11-08T12:06:40.136Z,98062.25
2022-11-08T12:09:54.717Z,98051.34
2022-11-08T12:13:00.057Z,98036.56
2022-11-08T12:15:59.888Z,98038.47
2022-11-08T12:19:12.010Z,98035.16
2022-11-08T12:22:19.008Z,98038.34
2022-11-08T12:25:19.567Z,98034.34
2022-11-08T12:28:33.588Z,98023.25
2022-11-08T12:31:29.477Z,98016.19
2022-11-08T12:34:24.011Z,98020.31
2022-11-08T12:37:29.255Z,98025.72
2022-11-08T12:40:29.172Z,98029.81
2022-11-08T12:43:55.521Z,98032.03
2022-11-08T12:47:02.523Z,98033.97
2022-11-08T12:50:11.531Z,98039.63
2022-11-08T12:53:29.190Z,98024.38
2022-11-08T12:56:25.502Z,98015.69
2022-11-08T12:59:23.847Z,98023.03
2022-11-08T13:02:22.982Z,98029.19
2022-11-08T13:05:21.177Z,98015.59
2022-11-08T13:08:21.061Z,98033.78
2022-11-08T13:11:16.707Z,98043.03
2022-11-08T13:14:06.293Z,98035.84
2022-11-08T13:17:18.727Z,98039.09
2022-11-08T13:20:42.715Z,98026.16
2022-11-08T13:23:33.146Z,98014.38
2022-11-08T13:26:24.551Z,98009.41
2022-11-08T13:29:24.182Z,98010.50
2022-11-08T13:32:27.901Z,98009.91
2022-11-08T13:35:28.502Z,97995.25
2022-11-08T13:38:37.661Z,98009.16
2022-11-08T13:41:27.119Z,98005.97
2022-11-08T13:45:13.406Z,98024.22
2022-11-08T13:48:28.214Z,98025.88
2022-11-08T13:51:32.717Z,98029.88
2022-11-08T13:54:52.828Z,98025.50
2022-11-08T13:58:00.063Z,98021.16
2022-11-08T14:00:48.244Z,98025.00
2022-11-08T14:03:56.353Z,98012.34
2022-11-08T14:07:01.837Z,98022.66
2022-11-08T14:10:01.484Z,98031.72
2022-11-08T14:13:02.525Z,98020.28
2022-11-08T14:15:58.025Z,98021.66
2022-11-08T14:18:47.147Z,98047.81
2022-11-08T14:21:35.893Z,98045.38
2022-11-08T14:24:30.019Z,98046.13
2022-11-08T14:27:36.293Z,98053.16
2022-11-08T14:30:25.392Z,98057.75
2022-11-08T14:33:20.139Z,98062.31
2022-11-08T14:36:16.015Z,98061.94
2022-11-08T14:39:12.758Z,98056.38
2022-11-08T14:42:04.445Z,98051.59
2022-11-08T14:44:58.929Z,98059.03
2022-11-08T14:47:47.835Z,98060.63
2022-11-08T14:50:37.128Z,98056.22
2022-11-08T14:53:29.103Z,98045.75
2022-11-08T14:56:21.349Z,98032.03
2022-11-08T14:59:11.145Z,98034.75
2022-11-08T15:02:00.535Z,98034.31
2022-11-08T15:04:48.567Z,98038.19
2022-11-08T15:07:36.537Z,98039.94
2022-11-08T15:10:24.732Z,98036.34
2022-11-08T15:13:12.766Z,98040.31
2022-11-08T15:16:05.838Z,98035.06
2022-11-08T15:18:56.296Z,98029.16
2022-11-08T15:21:49.719Z,98027.28
2022-11-08T15:24:40.085Z,98030.44
2022-11-08T15:27:28.421Z,98037.72
2022-11-08T15:30:20.204Z,98036.31
2022-11-08T15:33:22.730Z,98028.44
2022-11-08T15:36:16.774Z,98019.00
2022-11-08T15:39:07.101Z,98031.13
2022-11-08T15:42:03.732Z,98042.41
2022-11-08T15:45:04.942Z,98046.81
2022-11-08T15:47:54.008Z,98040.47
2022-11-08T15:50:41.389Z,98035.19
2022-11-08T15:53:30.202Z,98041.75
2022-11-08T15:56:19.107Z,98044.31
2022-11-08T15:59:07.004Z,98044.34
2022-11-08T16:01:58.367Z,98046.41
2022-11-08T16:04:45.889Z,98045.63
2022-11-08T16:07:33.386Z,98051.97
2022-11-08T16:10:31.128Z,98049.50
2022-11-08T16:13:24.877Z,98043.56
2022-11-08T16:16:15.357Z,98044.56
2022-11-08T16:19:05.287Z,98035.97
2022-11-08T16:21:53.686Z,98052.94
2022-11-08T16:24:41.726Z,98049.66
2022-11-08T16:27:30.681Z,98042.66
2022-11-08T16:30:36.242Z,98042.84
2022-11-08T16:33:26.690Z,98039.53
2022-11-08T16:36:20.801Z,98034.06
2022-11-08T16:39:16.446Z,98043.72
2022-11-08T16:42:05.344Z,98038.88
2022-11-08T16:44:54.782Z,98032.56
2022-11-08T16:47:45.144Z,98037.69
2022-11-08T16:50:32.867Z,98038.72
2022-11-08T16:53:22.758Z,98035.84
2022-11-08T16:56:10.544Z,98040.00
2022-11-08T16:58:58.244Z,98049.31
2022-11-08T17:01:49.685Z,98049.97
2022-11-08T17:04:37.500Z,98050.28
2022-11-08T17:07:26.573Z,98050.75
2022-11-08T17:10:17.427Z,98054.19
2022-11-08T17:13:05.894Z,98055.34
2022-11-08T17:15:56.032Z,98055.84
2022-11-08T17:18:49.781Z,98054.66
2022-11-08T17:21:47.006Z,98059.47
2022-11-08T17:24:34.566Z,98063.97
2022-11-08T17:27:21.997Z,98069.28
2022-11-08T17:30:11.715Z,98073.06
2022-11-08T17:32:59.642Z,98082.66
2022-11-08T17:35:48.849Z,98081.16
2022-11-08T17:38:37.411Z,98084.28
2022-11-08T17:41:25.115Z,98088.25
2022-11-08T17:44:12.683Z,98083.56
2022-11-08T17:47:00.584Z,98092.00
2022-11-08T17:49:48.053Z,98085.13
2022-11-08T17:52:37.530Z,98089.72
2022-11-08T17:55:27.752Z,98098.28
2022-11-08T17:58:15.335Z,98095.13
2022-11-08T18:01:06.151Z,98087.09
2022-11-08T18:03:53.731Z,98095.53
2022-11-08T18:06:41.428Z,98100.13
2022-11-08T18:09:30.381Z,98096.81
2022-11-08T18:12:18.097Z,98087.13
2022-11-08T18:15:07.505Z,98083.13
2022-11-08T18:17:55.571Z,98079.13
2022-11-08T18:20:43.450Z,98085.69
2022-11-08T18:23:31.195Z,98075.41
2022-11-08T18:26:22.484Z,98074.34
2022-11-08T18:29:10.380Z,98072.16
2022-11-08T18:31:59.263Z,98073.31
2022-11-08T18:34:46.846Z,98072.25
2022-11-08T18:37:34.708Z,98077.16
2022-11-08T18:40:22.438Z,98076.09
2022-11-08T18:43:14.446Z,98074.75
2022-11-08T18:46:04.847Z,98068.22
2022-11-08T18:48:53.444Z,98068.69
2022-11-08T18:51:44.002Z,98060.91
2022-11-08T18:54:37.050Z,98065.66
2022-11-08T18:57:24.805Z,98068.22
2022-11-08T19:00:14.716Z,98066.69
2022-11-08T19:03:03.051Z,98069.50
2022-11-08T19:05:50.540Z,98076.78
2022-11-08T19:08:38.437Z,98078.72
2022-11-08T19:11:26.225Z,98081.81
2022-11-08T19:14:13.720Z,98086.56
2022-11-08T19:17:04.621Z,98082.56
2022-11-08T19:19:52.071Z,98077.72
2022-11-08T19:22:41.949Z,98075.78
2022-11-08T19:25:31.018Z,98074.44
2022-11-08T19:28:18.579Z,98083.66
2022-11-08T19:31:07.129Z,98068.06
2022-11-08T19:33:59.129Z,98073.50
2022-11-08T19:36:49.073Z,98073.66
2022-11-08T19:39:40.574Z,98081.00
2022-11-08T19:42:28.012Z,98076.72
2022-11-08T19:45:15.670Z,98077.84
2022-11-08T19:48:03.276Z,98075.47
2022-11-08T19:50:52.373Z,98081.44
2022-11-08T19:53:40.845Z,98076.47
2022-11-08T19:56:57.762Z,98073.97
2022-11-08T19:59:37.892Z,98068.69
2022-11-08T20:02:25.615Z,98073.81
2022-11-08T20:05:13.088Z,98077.16
2022-11-08T20:08:06.010Z,98075.47
2022-11-08T20:10:53.368Z,98071.19
2022-11-08T20:13:41.200Z,98074.78
2022-11-08T20:16:32.407Z,98085.22
2022-11-08T20:19:21.131Z,98076.47
2022-11-08T20:22:08.837Z,98082.72
2022-11-08T20:24:58.229Z,98075.06
2022-11-08T20:27:45.952Z,98076.91
2022-11-08T20:30:33.856Z,98087.66
2022-11-08T20:33:21.704Z,98080.66
2022-11-08T20:36:12.712Z,98082.63
2022-11-08T20:39:05.333Z,98083.88
2022-11-08T20:41:56.673Z,98078.88
2022-11-08T20:44:44.160Z,98076.41
2022-11-08T20:47:31.711Z,98082.13
2022-11-08T20:50:19.514Z,98075.28
2022-11-08T20:53:07.248Z,98082.72
2022-11-08T20:55:58.690Z,98082.00
2022-11-08T20:58:49.811Z,98078.00
2022-11-08T21:01:37.882Z,98083.56
2022-11-08T21:04:25.406Z,98082.19
2022-11-08T21:10:41.672Z,98084.72
2022-11-08T21:13:31.411Z,98085.00
2022-11-08T21:16:29.963Z,98085.28
2022-11-08T21:19:21.345Z,98086.97
2022-11-08T21:22:18.186Z,98084.59
2022-11-08T21:25:06.977Z,98070.50
2022-11-08T21:27:54.441Z,98066.84
2022-11-08T21:30:45.805Z,98073.44
2022-11-08T21:33:36.028Z,98072.63
2022-11-08T21:36:26.625Z,98075.56
2022-11-08T21:39:14.681Z,98084.66
2022-11-08T21:42:02.322Z,98088.56
2022-11-08T21:44:49.856Z,98091.78
2022-11-08T21:47:37.924Z,98092.78
2022-11-08T21:50:27.214Z,98086.63
2022-11-08T21:53:14.626Z,98088.88
2022-11-08T21:56:02.168Z,98085.81
2022-11-08T21:58:49.717Z,98095.00
2022-11-08T22:01:37.507Z,98087.59
2022-11-08T22:04:25.431Z,98080.94
2022-11-08T22:07:14.331Z,98081.56
2022-11-08T22:10:01.918Z,98095.50
2022-11-08T22:12:49.664Z,98089.94
2022-11-08T22:15:37.566Z,98094.09
2022-11-08T22:18:50.201Z,98091.88
2022-11-08T22:21:43.183Z,98092.72
2022-11-08T22:24:32.447Z,98083.50
2022-11-08T22:27:20.082Z,98076.78
2022-11-08T22:30:11.539Z,98077.06
2022-11-08T22:33:03.378Z,98075.63
2022-11-08T22:35:51.083Z,98073.13
2022-11-08T22:38:39.362Z,98080.19
2022-11-08T22:41:28.799Z,98080.59
2022-11-08T22:44:16.891Z,98080.31
2022-11-08T22:47:04.901Z,98083.97
2022-11-08T22:49:52.803Z,98073.22
2022-11-08T22:52:40.415Z,98071.84
2022-11-08T22:55:28.322Z,98070.88
2022-11-08T22:58:17.391Z,98075.03
2022-11-08T23:01:07.559Z,98070.00
2022-11-08T23:03:55.260Z,98068.63
2022-11-08T23:06:42.996Z,98074.91
2022-11-08T23:09:30.528Z,98062.53
2022-11-08T23:12:35.831Z,98068.22
2022-11-08T23:15:42.166Z,98055.31
2022-11-08T23:18:29.603Z,98061.84
2022-11-08T23:21:33.781Z,98066.69
2022-11-08T23:24:21.102Z,98069.78
2022-11-08T23:27:26.594Z,98065.47
2022-11-08T23:30:34.689Z,98073.41
2022-11-08T23:33:23.590Z,98068.41
2022-11-08T23:36:15.924Z,98060.06
2022-11-08T23:39:03.809Z,98063.41
2022-11-08T23:42:09.290Z,98066.22
2022-11-08T23:44:56.730Z,98066.22
2022-11-08T23:47:44.455Z,98064.13
2022-11-08T23:50:33.366Z,98061.75
2022-11-08T23:53:25.065Z,98062.28
2022-11-08T23:56:23.371Z,98060.34
2022-11-08T23:59:12.315Z,98058.69
